createdAt,value
2022-08-02T00:02:28.361Z,1002.66
2022-08-02T00:07:28.445Z,1002.75
2022-08-02T00:12:28.387Z,1002.68
2022-08-02T00:17:28.179Z,1002.65
2022-08-02T00:22:28.136Z,1002.73
2022-08-02T00:27:28.088Z,1002.75
2022-08-02T00:32:28.028Z,1002.75
2022-08-02T00:37:27.969Z,1002.72
2022-08-02T00:42:27.893Z,1002.71
2022-08-02T00:47:27.863Z,1002.66
2022-08-02T00:52:31.168Z,1002.68
2022-08-02T00:57:27.843Z,1002.65
2022-08-02T01:02:27.794Z,1002.70
2022-08-02T01:07:27.721Z,1002.66
2022-08-02T01:12:27.586Z,1002.66
2022-08-02T01:17:27.601Z,1002.62
2022-08-02T01:22:45.176Z,1002.56
2022-08-02T01:27:28.403Z,1002.48
2022-08-02T01:32:28.454Z,1002.42
2022-08-02T01:37:27.473Z,1002.48
2022-08-02T01:42:27.227Z,1002.44
2022-08-02T01:47:27.188Z,1002.43
2022-08-02T01:52:27.141Z,1002.47
2022-08-02T01:57:27.073Z,1002.38
2022-08-02T02:02:30.088Z,1002.39
2022-08-02T02:07:26.951Z,1002.38
2022-08-02T02:12:26.915Z,1002.33
2022-08-02T02:17:52.073Z,1002.22
2022-08-02T02:22:27.819Z,1002.26
2022-08-02T02:27:26.721Z,1002.26
2022-08-02T02:32:26.680Z,1002.27
2022-08-02T02:37:26.635Z,1002.24
2022-08-02T02:42:26.580Z,1002.18
2022-08-02T02:47:41.005Z,1002.10
2022-08-02T02:52:27.476Z,1002.09
2022-08-02T02:57:26.514Z,1002.04
2022-08-02T03:02:26.359Z,1002.01
2022-08-02T03:07:26.326Z,1001.90
2022-08-02T03:12:31.893Z,1001.98
2022-08-02T03:17:26.208Z,1001.98
2022-08-02T03:22:26.214Z,1002.01
2022-08-02T03:27:26.118Z,1001.97
2022-08-02T03:32:26.040Z,1002.05
2022-08-02T03:37:25.966Z,1002.03
2022-08-02T03:42:25.914Z,1001.94
2022-08-02T03:47:25.867Z,1001.82
2022-08-02T03:52:25.800Z,1001.74
2022-08-02T03:57:25.750Z,1001.84
2022-08-02T04:02:25.689Z,1001.87
2022-08-02T04:08:34.299Z,1001.95
2022-08-02T04:12:26.599Z,1001.97
2022-08-02T04:17:25.658Z,1001.94
2022-08-02T04:22:26.617Z,1002.01
2022-08-02T04:28:15.633Z,1002.01
2022-08-02T04:32:26.379Z,1002.05
2022-08-02T04:37:25.293Z,1002.11
2022-08-02T04:42:25.274Z,1002.02
2022-08-02T04:47:54.270Z,1002.13
2022-08-02T04:52:26.266Z,1001.95
2022-08-02T04:57:25.145Z,1001.95
2022-08-02T05:02:25.019Z,1002.04
2022-08-02T05:07:24.983Z,1002.05
2022-08-02T05:12:25.027Z,1002.06
2022-08-02T05:17:24.844Z,1002.03
2022-08-02T05:22:24.815Z,1001.96
2022-08-02T05:27:24.734Z,1001.98
2022-08-02T05:32:25.107Z,1002.02
2022-08-02T05:37:24.788Z,1002.04
2022-08-02T05:42:24.734Z,1002.01
2022-08-02T05:47:24.541Z,1002.04
2022-08-02T05:52:24.482Z,1001.99
2022-08-02T05:57:24.452Z,1001.92
2022-08-02T06:02:28.611Z,1001.87
2022-08-02T06:07:25.521Z,1001.84
2022-08-02T06:12:25.377Z,1001.76
2022-08-02T06:17:24.238Z,1001.80
2022-08-02T06:22:35.297Z,1001.81
2022-08-02T06:27:25.174Z,1001.82
2022-08-02T06:32:25.435Z,1001.80
2022-08-02T06:37:32.677Z,1001.80
2022-08-02T06:42:27.169Z,1001.75
2022-08-02T06:47:23.863Z,1001.66
2022-08-02T06:52:27.650Z,1001.67
2022-08-02T06:57:24.752Z,1001.69
2022-08-02T07:02:23.750Z,1001.67
2022-08-02T07:07:23.697Z,1001.74
2022-08-02T07:12:23.682Z,1001.75
2022-08-02T07:17:23.535Z,1001.64
2022-08-02T07:22:23.695Z,1001.62
2022-08-02T07:27:23.441Z,1001.60
2022-08-02T07:32:23.373Z,1001.54
2022-08-02T07:37:35.305Z,1001.57
2022-08-02T07:42:24.279Z,1001.53
2022-08-02T07:47:23.190Z,1001.52
2022-08-02T07:52:23.156Z,1001.55
2022-08-02T07:57:23.107Z,1001.51
2022-08-02T08:02:23.074Z,1001.49
2022-08-02T08:07:22.976Z,1001.35
2022-08-02T08:12:22.971Z,1001.31
2022-08-02T08:17:22.892Z,1001.31
2022-08-02T08:22:22.900Z,1001.28
2022-08-02T08:27:22.779Z,1001.29
2022-08-02T08:32:22.935Z,1001.22
2022-08-02T08:37:22.661Z,1001.13
2022-08-02T08:42:22.638Z,1001.14
2022-08-02T08:47:22.573Z,1001.17
2022-08-02T08:52:22.508Z,1001.12
2022-08-02T08:57:22.554Z,1001.14
2022-08-02T09:02:26.069Z,1001.12
2022-08-02T09:07:23.360Z,1001.08
2022-08-02T09:12:22.607Z,1001.05
2022-08-02T09:17:24.263Z,1001.01
2022-08-02T09:22:22.274Z,1000.93
2022-08-02T09:27:22.206Z,1000.84
2022-08-02T09:32:22.143Z,1000.91
2022-08-02T09:37:22.032Z,1000.89
2022-08-02T09:42:21.976Z,1000.97
2022-08-02T09:47:21.948Z,1000.80
2022-08-02T09:52:21.889Z,1000.85
2022-08-02T09:57:22.841Z,1000.96
2022-08-02T10:02:22.906Z,1000.94
2022-08-02T10:07:22.330Z,1000.88
2022-08-02T10:12:21.692Z,1000.84
2022-08-02T10:17:21.620Z,1000.86
2022-08-02T10:22:21.576Z,1000.80
2022-08-02T10:27:21.572Z,1000.75
2022-08-02T10:32:21.517Z,1000.69
2022-08-02T10:37:21.471Z,1000.77
2022-08-02T10:42:21.431Z,1000.77
2022-08-02T10:47:21.331Z,1000.65
2022-08-02T10:52:21.269Z,1000.64
2022-08-02T10:57:21.343Z,1000.53
2022-08-02T11:02:21.194Z,1000.57
2022-08-02T11:07:21.201Z,1000.58
2022-08-02T11:12:21.075Z,1000.45
2022-08-02T11:17:21.023Z,1000.47
2022-08-02T11:22:25.470Z,1000.51
2022-08-02T11:27:22.324Z,1000.45
2022-08-02T11:32:20.868Z,1000.34
2022-08-02T11:37:20.823Z,1000.40
2022-08-02T11:42:20.769Z,1000.34
2022-08-02T11:47:20.720Z,1000.29
2022-08-02T11:52:20.700Z,1000.28
2022-08-02T11:57:21.240Z,1000.29
2022-08-02T12:02:21.672Z,1000.27
2022-08-02T12:07:20.575Z,1000.23
2022-08-02T12:12:21.473Z,1000.24
2022-08-02T12:17:20.485Z,1000.16
2022-08-02T12:22:24.296Z,1000.19
2022-08-02T12:27:21.366Z,1000.14
2022-08-02T12:32:20.253Z,1000.18
2022-08-02T12:37:30.049Z,1000.21
2022-08-02T12:42:20.174Z,1000.22
2022-08-02T12:47:21.356Z,1000.15
2022-08-02T12:52:20.065Z,1000.11
2022-08-02T12:57:20.012Z,1000.07
2022-08-02T13:02:20.527Z,1000.10
2022-08-02T13:07:19.958Z,999.95
2022-08-02T13:12:19.861Z,1000.04
2022-08-02T13:17:19.865Z,1000.01
2022-08-02T13:22:19.823Z,999.88
2022-08-02T13:27:20.816Z,999.89
2022-08-02T13:32:19.725Z,999.90
2022-08-02T13:37:20.671Z,999.80
2022-08-02T13:42:19.576Z,999.70
2022-08-02T13:47:35.962Z,999.73
2022-08-02T13:52:20.505Z,999.66
2022-08-02T13:57:20.429Z,999.65
2022-08-02T14:02:19.505Z,999.63
2022-08-02T14:07:19.380Z,999.56
2022-08-02T14:12:19.261Z,999.62
2022-08-02T14:17:19.223Z,999.55
2022-08-02T14:22:19.195Z,999.48
2022-08-02T14:27:19.171Z,999.45
2022-08-02T14:32:19.078Z,999.40
2022-08-02T14:37:19.057Z,999.43
2022-08-02T14:42:18.951Z,999.38
2022-08-02T14:47:19.199Z,999.36
2022-08-02T14:52:19.871Z,999.26
2022-08-02T14:57:18.831Z,999.26
2022-08-02T15:02:18.844Z,999.22
2022-08-02T15:07:19.816Z,999.18
2022-08-02T15:12:18.752Z,999.14
2022-08-02T15:17:18.739Z,999.14
2022-08-02T15:22:19.241Z,999.11
2022-08-02T15:27:18.501Z,999.08
2022-08-02T15:32:18.670Z,999.08
2022-08-02T15:37:18.391Z,998.99
2022-08-02T15:42:18.355Z,999.03
2022-08-02T15:47:18.295Z,999.00
2022-08-02T15:52:18.264Z,998.91
2022-08-02T15:57:18.238Z,999.00
2022-08-02T16:02:18.456Z,998.95
2022-08-02T16:07:18.284Z,998.92
2022-08-02T16:12:18.040Z,998.95
2022-08-02T16:17:48.752Z,998.97
2022-08-02T16:22:18.931Z,998.83
2022-08-02T16:27:17.897Z,998.75
2022-08-02T16:32:18.863Z,998.81
2022-08-02T16:37:18.927Z,998.88
2022-08-02T16:42:25.517Z,998.84
2022-08-02T16:47:18.803Z,998.85
2022-08-02T16:52:18.833Z,998.80
2022-08-02T16:57:19.747Z,998.78
2022-08-02T17:02:18.447Z,998.78
2022-08-02T17:08:16.591Z,998.70
2022-08-02T17:12:18.625Z,998.68
2022-08-02T17:17:17.356Z,998.66
2022-08-02T17:22:17.756Z,998.65
2022-08-02T17:27:17.392Z,998.59
2022-08-02T17:32:19.546Z,998.60
2022-08-02T17:37:17.279Z,998.65
2022-08-02T17:42:19.882Z,998.68
2022-08-02T17:47:17.800Z,998.75
2022-08-02T17:52:51.952Z,998.70
2022-08-02T17:57:17.973Z,998.68
2022-08-02T18:02:17.294Z,998.64
2022-08-02T18:07:16.835Z,998.62
2022-08-02T18:12:18.286Z,998.58
2022-08-02T18:17:16.806Z,998.60
2022-08-02T18:22:16.919Z,998.66
2022-08-02T18:27:17.580Z,998.69
2022-08-02T18:32:16.604Z,998.69
2022-08-02T18:37:17.708Z,998.75
2022-08-02T18:42:17.812Z,998.74
2022-08-02T18:47:16.380Z,998.70
2022-08-02T18:52:31.586Z,998.74
2022-08-02T18:58:17.625Z,998.76
2022-08-02T19:02:17.196Z,998.82
2022-08-02T19:07:16.151Z,998.80
2022-08-02T19:12:26.001Z,998.90
2022-08-02T19:17:55.493Z,998.91
2022-08-02T19:22:20.211Z,998.89
2022-08-02T19:27:15.916Z,998.97
2022-08-02T19:32:41.248Z,999.02
2022-08-02T19:37:17.514Z,999.06
2022-08-02T19:42:16.178Z,999.06
2022-08-02T19:52:21.284Z,999.11
2022-08-02T19:57:19.465Z,999.14
2022-08-02T20:02:16.286Z,999.16
2022-08-02T20:07:19.302Z,999.15
2022-08-02T20:12:16.724Z,999.24
2022-08-02T20:17:15.375Z,999.26
2022-08-02T20:22:15.661Z,999.28
2022-08-02T20:27:23.029Z,999.26
2022-08-02T20:32:16.504Z,999.34
2022-08-02T20:37:56.272Z,999.35
2022-08-02T20:42:23.046Z,999.36
2022-08-02T20:47:16.041Z,999.46
2022-08-02T20:52:23.776Z,999.41
2022-08-02T20:57:15.937Z,999.36
2022-08-02T21:02:16.316Z,999.35
2022-08-02T21:12:15.828Z,999.35
2022-08-02T21:17:18.075Z,999.38
2022-08-02T21:22:15.902Z,999.37
2022-08-02T21:27:53.107Z,999.35
2022-08-02T21:32:15.854Z,999.44
2022-08-02T21:42:22.416Z,999.53
2022-08-02T21:47:15.379Z,999.51
2022-08-02T21:52:14.662Z,999.53
2022-08-02T21:57:16.567Z,999.51
2022-08-02T22:02:14.458Z,999.55
2022-08-02T22:07:14.152Z,999.60
2022-08-02T22:17:15.041Z,999.62
2022-08-02T22:22:14.249Z,999.64
2022-08-02T22:27:13.932Z,999.69
2022-08-02T22:32:21.174Z,999.68
2022-08-02T22:38:15.166Z,999.68
2022-08-02T22:42:14.853Z,999.65
2022-08-02T22:47:15.200Z,999.64
2022-08-02T22:52:14.168Z,999.67
2022-08-02T22:57:13.744Z,999.75
2022-08-02T22:59:03.126Z,999.47
2022-08-02T22:59:04.403Z,999.59
2022-08-02T22:59:07.446Z,999.12
2022-08-02T23:02:13.657Z,999.70
2022-08-02T23:07:13.506Z,999.68
2022-08-02T23:12:13.525Z,999.70
2022-08-02T23:17:13.397Z,999.66
2022-08-02T23:22:13.331Z,999.63
2022-08-02T23:27:13.287Z,999.61
2022-08-02T23:32:13.502Z,999.62
2022-08-02T23:37:13.355Z,999.62
2022-08-02T23:42:13.243Z,999.60
2022-08-02T23:47:13.058Z,999.64
2022-08-02T23:52:13.121Z,999.61
2022-08-02T23:57:20.743Z,999.61
